createdAt,value
2022-10-17T00:01:14.805Z,9.49
2022-10-17T00:03:43.307Z,9.47
2022-10-17T00:06:14.826Z,9.44
2022-10-17T00:08:44.772Z,9.37
2022-10-17T00:11:19.478Z,9.28
2022-10-17T00:13:49.944Z,9.19
2022-10-17T00:16:27.254Z,9.14
2022-10-17T00:18:56.252Z,9.11
2022-10-17T00:21:25.576Z,9.09
2022-10-17T00:23:54.631Z,9.05
2022-10-17T00:26:23.517Z,9.02
2022-10-17T00:28:53.567Z,8.98
2022-10-17T00:31:24.015Z,8.94
2022-10-17T00:33:53.258Z,8.93
2022-10-17T00:36:24.855Z,8.91
2022-10-17T00:38:59.346Z,8.89
2022-10-17T00:41:31.499Z,8.85
2022-10-17T00:44:28.446Z,8.82
2022-10-17T00:46:59.536Z,8.82
2022-10-17T00:49:30.573Z,8.78
2022-10-17T00:52:06.541Z,8.76
2022-10-17T00:54:41.218Z,8.74
2022-10-17T00:57:10.212Z,8.74
2022-10-17T00:59:42.329Z,8.72
2022-10-17T01:02:14.542Z,8.70
2022-10-17T01:04:46.916Z,8.67
2022-10-17T01:07:15.476Z,8.62
2022-10-17T01:09:46.007Z,8.55
2022-10-17T01:12:22.795Z,8.51
2022-10-17T01:15:09.479Z,8.44
2022-10-17T01:17:48.227Z,8.42
2022-10-17T01:20:39.916Z,8.40
2022-10-17T01:23:33.214Z,8.41
2022-10-17T01:26:11.202Z,8.43
2022-10-17T01:29:07.177Z,8.43
2022-10-17T01:31:49.314Z,8.42
2022-10-17T01:34:55.390Z,8.40
2022-10-17T01:37:40.015Z,8.38
2022-10-17T01:40:08.932Z,8.38
2022-10-17T01:42:52.448Z,8.38
2022-10-17T01:45:35.696Z,8.39
2022-10-17T01:48:12.256Z,8.40
2022-10-17T01:50:52.934Z,8.39
2022-10-17T01:53:35.031Z,8.39
2022-10-17T01:56:07.593Z,8.39
2022-10-17T01:58:49.624Z,8.38
2022-10-17T02:01:21.409Z,8.38
2022-10-17T02:03:52.215Z,8.37
2022-10-17T02:06:20.734Z,8.35
2022-10-17T02:08:51.491Z,8.35
2022-10-17T02:11:26.402Z,8.34
2022-10-17T02:14:25.269Z,8.33
2022-10-17T02:16:53.698Z,8.30
2022-10-17T02:20:03.870Z,8.28
2022-10-17T02:22:42.223Z,8.26
2022-10-17T02:25:34.903Z,8.24
2022-10-17T02:28:15.839Z,8.23
2022-10-17T02:31:07.334Z,8.22
2022-10-17T02:34:31.392Z,8.20
2022-10-17T02:37:02.310Z,8.17
2022-10-17T02:39:32.975Z,8.14
2022-10-17T02:42:06.546Z,8.11
2022-10-17T02:44:37.925Z,8.09
2022-10-17T02:47:20.937Z,8.07
2022-10-17T02:49:52.896Z,8.04
2022-10-17T02:52:30.125Z,8.03
2022-10-17T02:55:14.371Z,8.02
2022-10-17T02:57:48.648Z,8.01
2022-10-17T03:00:17.987Z,7.98
2022-10-17T03:02:50.873Z,7.95
2022-10-17T03:05:29.078Z,7.93
2022-10-17T03:07:57.608Z,7.91
2022-10-17T03:10:26.418Z,7.90
2022-10-17T03:12:56.136Z,7.88
2022-10-17T03:15:25.138Z,7.86
2022-10-17T03:17:53.648Z,7.86
2022-10-17T03:20:22.139Z,7.83
2022-10-17T03:22:51.200Z,7.79
2022-10-17T03:25:20.276Z,7.77
2022-10-17T03:27:48.988Z,7.74
2022-10-17T03:30:17.639Z,7.70
2022-10-17T03:32:46.602Z,7.65
2022-10-17T03:35:15.275Z,7.61
2022-10-17T03:37:46.175Z,7.59
2022-10-17T03:40:14.897Z,7.58
2022-10-17T03:42:43.673Z,7.56
2022-10-17T03:45:12.535Z,7.52
2022-10-17T03:47:41.057Z,7.50
2022-10-17T03:50:09.712Z,7.47
2022-10-17T03:52:39.065Z,7.40
2022-10-17T03:55:08.064Z,7.33
2022-10-17T03:57:37.689Z,7.29
2022-10-17T04:00:08.556Z,7.25
2022-10-17T04:02:42.526Z,7.23
2022-10-17T04:05:13.944Z,7.17
2022-10-17T04:07:42.707Z,7.15
2022-10-17T04:10:13.370Z,7.12
2022-10-17T04:12:41.928Z,7.08
2022-10-17T04:15:11.043Z,7.06
2022-10-17T04:17:39.642Z,7.05
2022-10-17T04:20:08.768Z,7.04
2022-10-17T04:22:37.424Z,7.03
2022-10-17T04:25:06.473Z,7.01
2022-10-17T04:27:37.541Z,7.00
2022-10-17T04:30:06.521Z,7.00
2022-10-17T04:32:39.222Z,7.01
2022-10-17T04:35:14.678Z,7.02
2022-10-17T04:37:46.880Z,7.03
2022-10-17T04:40:19.261Z,7.04
2022-10-17T04:42:47.949Z,7.04
2022-10-17T04:45:19.582Z,7.04
2022-10-17T04:47:48.616Z,7.07
2022-10-17T04:50:17.156Z,7.10
2022-10-17T04:53:01.854Z,7.12
2022-10-17T04:55:30.715Z,7.18
2022-10-17T04:57:59.283Z,7.24
2022-10-17T05:00:27.803Z,7.32
2022-10-17T05:03:07.141Z,7.46
2022-10-17T05:05:42.692Z,7.59
2022-10-17T05:08:12.336Z,7.73
2022-10-17T05:10:43.878Z,7.85
2022-10-17T05:13:13.094Z,7.96
2022-10-17T05:15:41.943Z,8.08
2022-10-17T05:18:10.367Z,8.19
2022-10-17T05:20:38.934Z,8.30
2022-10-17T05:23:08.003Z,8.37
2022-10-17T05:25:39.617Z,8.44
2022-10-17T05:28:08.112Z,8.52
2022-10-17T05:30:37.752Z,8.53
2022-10-17T05:33:07.669Z,8.54
2022-10-17T05:35:36.866Z,8.56
2022-10-17T05:38:05.467Z,8.59
2022-10-17T05:40:34.909Z,8.64
2022-10-17T05:43:04.575Z,8.67
2022-10-17T05:45:33.377Z,8.75
2022-10-17T05:48:02.289Z,8.83
2022-10-17T05:50:30.853Z,8.86
2022-10-17T05:53:10.230Z,8.87
2022-10-17T05:55:42.413Z,8.89
2022-10-17T05:58:17.695Z,8.95
2022-10-17T06:00:52.298Z,9.01
2022-10-17T06:03:20.780Z,9.05
2022-10-17T06:05:49.619Z,9.13
2022-10-17T06:08:18.440Z,9.18
2022-10-17T06:10:51.157Z,9.19
2022-10-17T06:13:20.481Z,9.19
2022-10-17T06:15:52.075Z,9.17
2022-10-17T06:18:20.931Z,9.26
2022-10-17T06:20:49.697Z,9.32
2022-10-17T06:23:20.024Z,9.37
2022-10-17T06:26:04.520Z,9.41
2022-10-17T06:28:33.835Z,9.46
2022-10-17T06:31:10.124Z,9.52
2022-10-17T06:33:38.802Z,9.54
2022-10-17T06:36:11.541Z,9.57
2022-10-17T06:38:40.677Z,9.63
2022-10-17T06:41:19.173Z,9.67
2022-10-17T06:43:48.377Z,9.72
2022-10-17T06:46:46.693Z,9.79
2022-10-17T06:49:17.817Z,9.86
2022-10-17T06:51:52.036Z,9.93
2022-10-17T06:54:24.515Z,9.97
2022-10-17T06:57:08.467Z,10.03
2022-10-17T06:59:53.678Z,10.14
2022-10-17T07:02:27.722Z,10.22
2022-10-17T07:04:58.318Z,10.33
2022-10-17T07:07:27.117Z,10.45
2022-10-17T07:09:55.962Z,10.56
2022-10-17T07:12:24.993Z,10.67
2022-10-17T07:14:53.471Z,10.77
2022-10-17T07:17:21.969Z,10.87
2022-10-17T07:19:50.998Z,10.98
2022-10-17T07:22:19.776Z,11.08
2022-10-17T07:27:29.631Z,11.23
2022-10-17T07:29:58.204Z,11.29
2022-10-17T07:32:47.859Z,11.35
2022-10-17T07:35:16.322Z,11.43
2022-10-17T07:37:44.838Z,11.53
2022-10-17T07:40:15.909Z,11.64
2022-10-17T07:42:44.630Z,11.75
2022-10-17T07:45:15.957Z,11.85
2022-10-17T07:47:44.822Z,11.94
2022-10-17T07:50:20.413Z,12.02
2022-10-17T07:52:48.864Z,12.11
2022-10-17T07:55:17.390Z,12.21
2022-10-17T07:57:45.921Z,12.32
2022-10-17T08:00:14.652Z,12.41
2022-10-17T08:02:43.301Z,12.51
2022-10-17T08:05:11.883Z,12.61
2022-10-17T08:07:41.636Z,12.70
2022-10-17T08:10:13.095Z,12.79
2022-10-17T08:12:41.907Z,12.88
2022-10-17T08:15:11.250Z,12.98
2022-10-17T08:17:40.354Z,13.09
2022-10-17T08:20:09.500Z,13.19
2022-10-17T08:22:37.949Z,13.31
2022-10-17T08:25:07.165Z,13.44
2022-10-17T08:27:36.509Z,13.54
2022-10-17T08:30:05.395Z,13.64
2022-10-17T08:32:33.980Z,13.76
2022-10-17T08:35:02.742Z,13.85
2022-10-17T08:37:32.842Z,13.98
2022-10-17T08:40:01.879Z,14.14
2022-10-17T08:42:39.248Z,14.27
2022-10-17T08:45:21.315Z,14.40
2022-10-17T08:47:54.687Z,14.50
2022-10-17T08:50:41.733Z,14.59
2022-10-17T08:53:31.867Z,14.76
2022-10-17T08:56:11.955Z,14.95
2022-10-17T08:58:43.764Z,15.09
2022-10-17T09:01:41.452Z,15.27
2022-10-17T09:04:34.373Z,15.52
2022-10-17T09:07:24.003Z,15.79
2022-10-17T09:10:17.358Z,16.02
2022-10-17T09:13:05.331Z,16.25
2022-10-17T09:15:57.711Z,16.51
2022-10-17T09:18:43.328Z,16.76
2022-10-17T09:21:27.761Z,16.95
2022-10-17T09:24:09.381Z,17.09
2022-10-17T09:26:40.740Z,17.26
2022-10-17T09:29:27.707Z,17.47
2022-10-17T09:32:11.542Z,17.66
2022-10-17T09:34:40.030Z,17.83
2022-10-17T09:37:14.761Z,17.96
2022-10-17T09:39:44.443Z,18.08
2022-10-17T09:42:17.524Z,18.22
2022-10-17T09:44:56.124Z,18.26
2022-10-17T09:47:35.099Z,18.26
2022-10-17T09:50:04.389Z,18.34
2022-10-17T09:52:41.260Z,18.47
2022-10-17T09:55:20.567Z,18.50
2022-10-17T09:58:09.750Z,18.37
2022-10-17T10:00:41.904Z,18.19
2022-10-17T10:03:13.432Z,18.25
2022-10-17T10:05:43.627Z,18.30
2022-10-17T10:08:23.640Z,18.34
2022-10-17T10:11:03.703Z,18.32
2022-10-17T10:13:34.892Z,18.44
2022-10-17T10:16:22.406Z,18.62
2022-10-17T10:18:52.232Z,18.80
2022-10-17T10:21:23.970Z,18.95
2022-10-17T10:24:13.593Z,18.92
2022-10-17T10:26:47.469Z,18.87
2022-10-17T10:29:41.540Z,18.93
2022-10-17T10:32:29.458Z,18.90
2022-10-17T10:35:00.547Z,18.86
2022-10-17T10:37:42.520Z,18.94
2022-10-17T10:40:18.837Z,19.03
2022-10-17T10:42:50.613Z,19.11
2022-10-17T10:45:46.439Z,19.18
2022-10-17T10:48:24.716Z,19.13
2022-10-17T10:50:56.134Z,19.12
2022-10-17T10:53:47.845Z,19.10
2022-10-17T10:56:35.391Z,19.05
2022-10-17T10:59:13.142Z,18.90
2022-10-17T11:01:47.535Z,18.80
2022-10-17T11:04:37.961Z,18.78
2022-10-17T11:07:16.939Z,18.76
2022-10-17T11:10:08.385Z,18.78
2022-10-17T11:12:42.093Z,18.82
2022-10-17T11:15:34.254Z,18.86
2022-10-17T11:18:08.850Z,18.82
2022-10-17T11:20:51.880Z,18.72
2022-10-17T11:23:38.943Z,18.66
2022-10-17T11:26:16.289Z,18.56
2022-10-17T11:28:44.820Z,18.42
2022-10-17T11:31:16.134Z,18.33
2022-10-17T11:33:47.376Z,18.34
2022-10-17T11:36:18.528Z,18.31
2022-10-17T11:38:55.923Z,18.22
2022-10-17T11:41:55.423Z,18.23
2022-10-17T11:44:34.433Z,18.26
2022-10-17T11:47:32.042Z,18.30
2022-10-17T11:53:10.256Z,18.37
2022-10-17T11:55:39.578Z,18.39
2022-10-17T11:58:36.580Z,18.40
2022-10-17T12:01:34.717Z,18.35
2022-10-17T12:04:21.494Z,18.32
2022-10-17T12:07:15.953Z,18.32
2022-10-17T12:09:57.322Z,18.31
2022-10-17T12:12:27.451Z,18.27
2022-10-17T12:15:20.949Z,18.23
2022-10-17T12:17:59.415Z,18.20
2022-10-17T12:20:29.242Z,18.14
2022-10-17T12:23:06.776Z,18.12
2022-10-17T12:28:15.309Z,18.08
2022-10-17T12:31:33.653Z,18.08
2022-10-17T12:34:04.595Z,18.08
2022-10-17T12:36:33.371Z,18.08
2022-10-17T12:39:01.938Z,18.09
2022-10-17T12:41:40.108Z,18.09
2022-10-17T12:44:15.184Z,18.06
2022-10-17T12:47:05.808Z,18.05
2022-10-17T12:49:43.904Z,18.04
2022-10-17T12:52:17.595Z,18.02
2022-10-17T12:55:00.397Z,18.02
2022-10-17T12:57:47.343Z,18.01
2022-10-17T13:00:37.436Z,18.01
2022-10-17T13:03:12.348Z,17.96
2022-10-17T13:05:53.003Z,17.95
2022-10-17T13:08:26.041Z,17.94
2022-10-17T13:10:56.385Z,17.92
2022-10-17T13:13:40.571Z,17.90
2022-10-17T13:16:09.598Z,17.88
2022-10-17T13:18:38.157Z,17.89
2022-10-17T13:21:16.779Z,17.87
2022-10-17T13:23:47.830Z,17.89
2022-10-17T13:26:25.979Z,17.83
2022-10-17T13:29:03.116Z,17.81
2022-10-17T13:31:35.714Z,17.83
2022-10-17T13:34:06.999Z,17.84
2022-10-17T13:36:36.099Z,17.84
2022-10-17T13:39:12.468Z,17.83
2022-10-17T13:41:43.603Z,17.83
2022-10-17T13:44:18.263Z,17.82
2022-10-17T13:46:47.390Z,17.80
2022-10-17T13:49:19.080Z,17.79
2022-10-17T13:51:51.148Z,17.79
2022-10-17T13:54:40.523Z,17.78
2022-10-17T13:57:35.947Z,17.77
2022-10-17T14:00:12.407Z,17.75
2022-10-17T14:02:41.783Z,17.73
2022-10-17T14:05:18.290Z,17.69
2022-10-17T14:08:11.769Z,17.68
2022-10-17T14:10:43.235Z,17.67
2022-10-17T14:13:36.164Z,17.65
2022-10-17T14:16:05.207Z,17.62
2022-10-17T14:18:38.171Z,17.61
2022-10-17T14:24:27.050Z,17.57
2022-10-17T14:26:59.764Z,17.55
2022-10-17T14:29:32.330Z,17.52
2022-10-17T14:32:08.759Z,17.50
2022-10-17T14:34:40.859Z,17.47
2022-10-17T14:37:20.353Z,17.45
2022-10-17T14:39:52.555Z,17.42
2022-10-17T14:42:23.078Z,17.40
2022-10-17T14:44:53.931Z,17.38
2022-10-17T14:47:44.030Z,17.35
2022-10-17T14:50:12.964Z,17.31
2022-10-17T14:52:43.336Z,17.27
2022-10-17T14:55:26.066Z,17.23
2022-10-17T14:57:54.898Z,17.18
2022-10-17T15:00:24.411Z,17.13
2022-10-17T15:02:55.307Z,17.09
2022-10-17T15:05:25.173Z,17.04
2022-10-17T15:07:54.127Z,16.99
2022-10-17T15:10:32.984Z,16.94
2022-10-17T15:15:52.460Z,16.82
2022-10-17T15:18:21.042Z,16.77
2022-10-17T15:20:55.375Z,16.71
2022-10-17T15:23:33.375Z,16.65
2022-10-17T15:26:02.196Z,16.59
2022-10-17T15:28:30.807Z,16.53
2022-10-17T15:30:59.364Z,16.47
2022-10-17T15:33:28.009Z,16.41
2022-10-17T15:38:29.912Z,16.31
2022-10-17T15:40:58.330Z,16.24
2022-10-17T15:43:26.855Z,16.19
2022-10-17T15:45:55.402Z,16.15
2022-10-17T15:48:31.171Z,16.09
2022-10-17T15:50:59.773Z,16.04
2022-10-17T15:53:28.295Z,15.98
2022-10-17T15:55:56.873Z,15.91
2022-10-17T15:58:28.474Z,15.86
2022-10-17T16:00:56.995Z,15.80
2022-10-17T16:03:25.755Z,15.76
2022-10-17T16:05:54.168Z,15.69
2022-10-17T16:08:22.719Z,15.64
2022-10-17T16:10:52.290Z,15.58
2022-10-17T16:13:23.790Z,15.53
2022-10-17T16:15:52.758Z,15.48
2022-10-17T16:18:21.424Z,15.43
2022-10-17T16:20:50.199Z,15.38
2022-10-17T16:23:18.903Z,15.33
2022-10-17T16:25:47.463Z,15.28
2022-10-17T16:28:15.966Z,15.24
2022-10-17T16:30:46.437Z,15.19
2022-10-17T16:33:15.230Z,15.15
2022-10-17T16:35:43.962Z,15.10
2022-10-17T16:38:13.074Z,15.07
2022-10-17T16:40:41.878Z,15.03
2022-10-17T16:43:13.859Z,14.98
2022-10-17T16:45:42.413Z,14.94
2022-10-17T16:48:11.046Z,14.90
2022-10-17T16:50:40.464Z,14.86
2022-10-17T16:53:09.220Z,14.82
2022-10-17T16:55:38.376Z,14.78
2022-10-17T16:58:06.812Z,14.74
2022-10-17T17:00:35.402Z,14.70
2022-10-17T17:03:04.212Z,14.66
2022-10-17T17:05:32.877Z,14.62
2022-10-17T17:08:03.647Z,14.59
2022-10-17T17:10:32.196Z,14.55
2022-10-17T17:13:01.923Z,14.51
2022-10-17T17:15:30.880Z,14.47
2022-10-17T17:18:04.855Z,14.43
2022-10-17T17:20:35.061Z,14.39
2022-10-17T17:23:03.569Z,14.35
2022-10-17T17:25:34.688Z,14.32
2022-10-17T17:28:04.171Z,14.29
2022-10-17T17:30:36.155Z,14.25
2022-10-17T17:33:04.659Z,14.21
2022-10-17T17:35:33.121Z,14.19
2022-10-17T17:38:03.245Z,14.15
2022-10-17T17:40:34.797Z,14.13
2022-10-17T17:43:03.470Z,14.09
2022-10-17T17:45:32.025Z,14.06
2022-10-17T17:48:00.740Z,14.03
2022-10-17T17:50:29.508Z,13.99
2022-10-17T17:52:57.942Z,13.95
2022-10-17T17:55:26.492Z,13.92
2022-10-17T17:57:54.970Z,13.88
2022-10-17T18:00:23.556Z,13.85
2022-10-17T18:02:52.271Z,13.82
2022-10-17T18:05:20.838Z,13.79
2022-10-17T18:07:49.500Z,13.75
2022-10-17T18:10:17.979Z,13.71
2022-10-17T18:12:46.422Z,13.68
2022-10-17T18:15:15.183Z,13.65
2022-10-17T18:17:43.689Z,13.61
2022-10-17T18:20:12.671Z,13.57
2022-10-17T18:22:41.366Z,13.55
2022-10-17T18:25:10.117Z,13.51
2022-10-17T18:27:38.700Z,13.47
2022-10-17T18:30:08.732Z,13.44
2022-10-17T18:32:37.347Z,13.38
2022-10-17T18:35:06.250Z,13.36
2022-10-17T18:37:34.989Z,13.33
2022-10-17T18:40:03.818Z,13.32
2022-10-17T18:42:32.584Z,13.32
2022-10-17T18:45:01.194Z,13.31
2022-10-17T18:47:30.387Z,13.31
2022-10-17T18:49:58.900Z,13.29
2022-10-17T18:52:27.314Z,13.28
2022-10-17T18:54:55.995Z,13.27
2022-10-17T18:57:26.362Z,13.25
2022-10-17T18:59:54.858Z,13.24
2022-10-17T19:02:23.904Z,13.23
2022-10-17T19:04:53.617Z,13.21
2022-10-17T19:07:22.081Z,13.20
2022-10-17T19:09:50.629Z,13.18
2022-10-17T19:12:19.097Z,13.17
2022-10-17T19:14:50.180Z,13.15
2022-10-17T19:17:19.565Z,13.13
2022-10-17T19:19:50.535Z,13.10
2022-10-17T19:22:19.475Z,13.09
2022-10-17T19:24:48.039Z,13.07
2022-10-17T19:27:16.468Z,13.05
2022-10-17T19:29:45.066Z,13.04
2022-10-17T19:32:16.743Z,13.03
2022-10-17T19:34:47.882Z,13.00
2022-10-17T19:37:16.277Z,13.01
2022-10-17T19:39:44.952Z,12.99
2022-10-17T19:42:13.455Z,12.98
2022-10-17T19:44:42.088Z,12.97
2022-10-17T19:47:10.668Z,12.95
2022-10-17T19:49:39.339Z,12.93
2022-10-17T19:52:07.907Z,12.93
2022-10-17T19:54:36.454Z,12.91
2022-10-17T19:57:09.515Z,12.88
2022-10-17T19:59:39.136Z,12.88
2022-10-17T20:02:07.699Z,12.87
2022-10-17T20:04:37.565Z,12.86
2022-10-17T20:07:10.658Z,12.83
2022-10-17T20:09:39.300Z,12.82
2022-10-17T20:12:07.802Z,12.80
2022-10-17T20:14:40.873Z,12.78
2022-10-17T20:17:09.672Z,12.75
2022-10-17T20:19:38.177Z,12.73
2022-10-17T20:22:06.685Z,12.73
2022-10-17T20:24:35.181Z,12.71
2022-10-17T20:27:03.660Z,12.68
2022-10-17T20:29:32.256Z,12.65
2022-10-17T20:32:01.252Z,12.63
2022-10-17T20:34:34.880Z,12.65
2022-10-17T20:37:03.420Z,12.66
2022-10-17T20:39:31.936Z,12.67
2022-10-17T20:42:00.465Z,12.67
2022-10-17T20:44:29.018Z,12.70
2022-10-17T20:47:02.313Z,12.74
2022-10-17T20:49:31.554Z,12.78
2022-10-17T20:52:01.021Z,12.82
2022-10-17T20:54:29.940Z,12.85
2022-10-17T20:57:01.215Z,12.86
2022-10-17T20:59:35.378Z,12.88
2022-10-17T21:02:05.538Z,12.88
2022-10-17T21:04:45.945Z,12.88
2022-10-17T21:07:15.744Z,12.86
2022-10-17T21:09:45.608Z,12.84
2022-10-17T21:12:21.700Z,12.80
2022-10-17T21:15:00.137Z,12.76
2022-10-17T21:17:28.627Z,12.72
2022-10-17T21:19:57.194Z,12.67
2022-10-17T21:22:25.723Z,12.63
2022-10-17T21:24:54.236Z,12.59
2022-10-17T21:27:22.816Z,12.54
2022-10-17T21:29:52.289Z,12.51
2022-10-17T21:32:40.119Z,12.46
2022-10-17T21:35:09.464Z,12.37
2022-10-17T21:37:38.035Z,12.27
2022-10-17T21:40:07.004Z,12.20
2022-10-17T21:42:35.495Z,12.16
2022-10-17T21:45:10.593Z,12.12
2022-10-17T21:47:54.985Z,12.08
2022-10-17T21:50:32.633Z,12.04
2022-10-17T21:53:00.993Z,12.00
2022-10-17T21:55:29.527Z,11.96
2022-10-17T21:57:58.024Z,11.92
2022-10-17T22:00:26.504Z,11.88
2022-10-17T22:02:55.034Z,11.84
2022-10-17T22:05:23.605Z,11.80
2022-10-17T22:07:52.081Z,11.76
2022-10-17T22:10:20.526Z,11.72
2022-10-17T22:12:48.984Z,11.69
2022-10-17T22:15:17.506Z,11.66
2022-10-17T22:17:45.954Z,11.63
2022-10-17T22:20:14.609Z,11.59
2022-10-17T22:22:43.044Z,11.54
2022-10-17T22:25:11.590Z,11.50
2022-10-17T22:27:40.154Z,11.47
2022-10-17T22:30:09.253Z,11.43
2022-10-17T22:32:37.743Z,11.39
2022-10-17T22:35:06.709Z,11.36
2022-10-17T22:37:35.220Z,11.34
2022-10-17T22:40:05.614Z,11.31
2022-10-17T22:42:34.852Z,11.27
2022-10-17T22:45:04.069Z,11.22
2022-10-17T22:47:32.793Z,11.18
2022-10-17T22:50:01.600Z,11.15
2022-10-17T22:52:30.361Z,11.12
2022-10-17T22:54:59.319Z,11.11
2022-10-17T22:57:27.894Z,11.12
2022-10-17T22:59:56.278Z,11.14
2022-10-17T23:02:24.778Z,11.14
2022-10-17T23:04:53.297Z,11.16
2022-10-17T23:07:22.047Z,11.17
2022-10-17T23:09:50.972Z,11.19
2022-10-17T23:12:19.932Z,11.21
2022-10-17T23:14:48.525Z,11.24
2022-10-17T23:17:17.816Z,11.26
2022-10-17T23:19:46.301Z,11.27
2022-10-17T23:22:14.720Z,11.27
2022-10-17T23:24:43.174Z,11.27
2022-10-17T23:27:11.795Z,11.27
2022-10-17T23:29:40.371Z,11.25
2022-10-17T23:32:08.751Z,11.24
2022-10-17T23:34:37.276Z,11.21
2022-10-17T23:37:05.723Z,11.19
2022-10-17T23:39:34.235Z,11.16
2022-10-17T23:42:02.840Z,11.12
2022-10-17T23:44:31.381Z,11.07
2022-10-17T23:46:59.872Z,11.02
2022-10-17T23:49:28.315Z,10.98
2022-10-17T23:51:56.810Z,10.93
2022-10-17T23:54:25.400Z,10.88
2022-10-17T23:56:53.819Z,10.84
2022-10-17T23:59:22.291Z,10.79
